Time;durP1;ratioP1;P1;durP2;ratioP2;P2;SDS_P1;SDS_P2;PMS_P1;PMS_P2;Temp;Humidity;BMP_temperature;BMP_pressure;BME280_temperature;BME280_humidity;BME280_pressure;Samples;Min_cycle;Max_cycle;Signal;HPM_P1;HPM_P2
2021/01/08 00:02:15;;;;;;;8.40;7.32;;;28.60;68.30;;;;;;4968219;28;20238;-53
2021/01/08 00:04:46;;;;;;;7.75;6.75;;;28.60;68.30;;;;;;4967073;28;20233;-54
2021/01/08 00:07:17;;;;;;;7.97;7.18;;;28.60;68.40;;;;;;4965949;28;20279;-54
2021/01/08 00:09:48;;;;;;;10.02;6.75;;;28.60;68.40;;;;;;4964871;28;20224;-52
2021/01/08 00:12:19;;;;;;;8.45;7.45;;;28.60;68.50;;;;;;4965114;28;20236;-52
2021/01/08 00:14:50;;;;;;;7.95;7.20;;;28.60;68.50;;;;;;4967847;28;20254;-50
2021/01/08 00:17:21;;;;;;;8.40;6.85;;;28.60;68.50;;;;;;4965384;28;25153;-53
2021/01/08 00:19:51;;;;;;;10.65;7.45;;;28.60;68.70;;;;;;4966396;28;20290;-52
2021/01/08 00:22:23;;;;;;;7.53;6.80;;;28.50;68.60;;;;;;4965698;28;20850;-50
2021/01/08 00:24:53;;;;;;;7.40;6.70;;;28.50;68.70;;;;;;4965588;28;20237;-51
2021/01/08 00:27:25;;;;;;;7.53;6.82;;;28.60;68.80;;;;;;4968497;28;20233;-54
2021/01/08 00:29:55;;;;;;;8.65;6.95;;;28.50;68.70;;;;;;4968158;28;20757;-52
2021/01/08 00:32:26;;;;;;;10.35;6.47;;;28.50;68.90;;;;;;4965584;28;20316;-49
2021/01/08 00:34:56;;;;;;;8.05;6.85;;;28.60;69.90;;;;;;4965402;28;20229;-50
2021/01/08 00:37:27;;;;;;;7.75;6.90;;;28.60;68.90;;;;;;4968217;28;20774;-50
2021/01/08 00:39:58;;;;;;;9.10;7.30;;;28.60;68.90;;;;;;4967949;28;20236;-51
2021/01/08 00:42:29;;;;;;;7.63;6.82;;;28.60;68.90;;;;;;4965520;28;20588;-52
2021/01/08 00:45:00;;;;;;;6.95;6.20;;;28.60;69.00;;;;;;4967344;28;20236;-53
2021/01/08 00:47:30;;;;;;;11.55;6.07;;;28.70;69.00;;;;;;4968156;28;20233;-52
2021/01/08 00:50:00;;;;;;;6.43;5.82;;;28.70;68.80;;;;;;4967478;28;20252;-52
2021/01/08 00:52:31;;;;;;;7.18;6.10;;;28.70;68.80;;;;;;4974302;28;20235;-49
2021/01/08 00:55:02;;;;;;;7.50;6.63;;;28.80;68.70;;;;;;4972973;28;20586;-50
2021/01/08 00:57:33;;;;;;;7.80;6.22;;;28.80;68.50;;;;;;4965282;28;20233;-54
2021/01/08 01:00:04;;;;;;;6.70;6.10;;;28.80;68.40;;;;;;4967795;28;20694;-51
2021/01/08 01:02:35;;;;;;;6.85;6.10;;;28.90;68.40;;;;;;4988660;28;20236;-49
2021/01/08 01:05:06;;;;;;;7.72;5.95;;;28.90;68.20;;;;;;4965933;28;20228;-50
2021/01/08 01:07:37;;;;;;;6.80;6.20;;;29.00;68.30;;;;;;4967064;28;20251;-51
2021/01/08 01:10:08;;;;;;;8.75;5.65;;;29.00;68.20;;;;;;4964224;28;20323;-52
2021/01/08 01:12:40;;;;;;;6.55;5.47;;;29.10;68.10;;;;;;4981802;28;20307;-52
2021/01/08 01:15:11;;;;;;;6.13;5.53;;;29.20;68.20;;;;;;4959473;28;20228;-53
2021/01/08 01:17:42;;;;;;;6.85;6.03;;;29.20;68.00;;;;;;4962601;28;20232;-51
2021/01/08 01:20:14;;;;;;;7.45;6.05;;;29.30;67.50;;;;;;4964217;28;21395;-53
2021/01/08 01:22:46;;;;;;;6.78;5.85;;;29.30;67.40;;;;;;4962159;28;20259;-53
2021/01/08 01:25:16;;;;;;;6.38;5.70;;;29.40;67.20;;;;;;4967034;28;20582;-53
2021/01/08 01:27:48;;;;;;;7.43;5.65;;;29.50;66.90;;;;;;4962363;28;20303;-50
2021/01/08 01:30:19;;;;;;;6.30;5.22;;;29.50;66.70;;;;;;4966723;28;20349;-52
2021/01/08 01:32:50;;;;;;;8.57;6.28;;;29.50;67.60;;;;;;4997897;28;20317;-53
2021/01/08 01:35:21;;;;;;;6.30;5.70;;;29.60;66.60;;;;;;4969447;28;20230;-52
2021/01/08 01:37:52;;;;;;;8.25;5.72;;;29.60;66.50;;;;;;4966130;28;20287;-49
2021/01/08 01:40:23;;;;;;;8.88;5.90;;;29.70;66.40;;;;;;4963301;28;20331;-50
2021/01/08 01:42:54;;;;;;;7.55;5.82;;;29.70;66.50;;;;;;4966921;28;20695;-50
2021/01/08 01:45:25;;;;;;;8.18;6.20;;;29.80;66.50;;;;;;4972734;28;20313;-52
2021/01/08 01:47:58;;;;;;;6.35;5.38;;;29.80;66.70;;;;;;4965131;28;20228;-52
2021/01/08 01:50:28;;;;;;;5.95;5.35;;;29.90;65.80;;;;;;4943404;28;20236;-53
2021/01/08 01:52:59;;;;;;;6.07;5.57;;;29.90;65.90;;;;;;4943942;28;20237;-53
2021/01/08 01:55:29;;;;;;;9.25;6.03;;;30.00;65.70;;;;;;4922357;28;20242;-50
2021/01/08 01:58:01;;;;;;;5.97;5.43;;;30.10;65.60;;;;;;4904255;29;20239;-54
2021/01/08 02:00:32;;;;;;;6.43;5.75;;;30.10;65.30;;;;;;4905328;29;20733;-53
2021/01/08 02:03:06;;;;;;;7.88;5.88;;;30.20;65.50;;;;;;4897653;29;20344;-52
2021/01/08 02:05:37;;;;;;;6.95;6.25;;;30.30;65.50;;;;;;4906156;29;20734;-52
2021/01/08 02:08:10;;;;;;;7.55;6.13;;;30.40;65.10;;;;;;4906954;29;20760;-56
2021/01/08 02:10:43;;;;;;;6.32;5.65;;;30.40;64.70;;;;;;4901191;29;20651;-53
2021/01/08 02:13:22;;;;;;;6.75;6.07;;;30.50;64.60;;;;;;4907170;29;20234;-56
2021/01/08 02:15:52;;;;;;;7.28;5.28;;;30.50;64.10;;;;;;4923444;29;20245;-55
2021/01/08 02:18:23;;;;;;;6.25;5.70;;;30.60;64.30;;;;;;4925874;29;20621;-53
2021/01/08 02:20:53;;;;;;;5.85;5.18;;;30.60;64.00;;;;;;4958788;28;20290;-51
2021/01/08 02:23:26;;;;;;;6.60;5.80;;;30.60;63.70;;;;;;4963989;28;20401;-53
2021/01/08 02:25:58;;;;;;;6.70;6.13;;;30.70;63.50;;;;;;4923027;29;20234;-52
2021/01/08 02:28:28;;;;;;;6.90;5.63;;;30.80;63.40;;;;;;4950687;28;20254;-51
2021/01/08 02:30:58;;;;;;;6.63;4.95;;;30.80;63.60;;;;;;5029086;28;20226;-53
2021/01/08 02:33:29;;;;;;;10.13;6.53;;;30.80;63.40;;;;;;5028078;28;20233;-49
2021/01/08 02:36:01;;;;;;;7.35;5.80;;;30.90;63.00;;;;;;5025264;28;20847;-50
2021/01/08 02:38:32;;;;;;;6.15;5.45;;;30.90;62.90;;;;;;5022060;28;20666;-51
2021/01/08 02:41:06;;;;;;;6.15;5.55;;;31.00;63.10;;;;;;5019657;28;20296;-50
2021/01/08 02:43:37;;;;;;;6.53;5.93;;;31.00;62.80;;;;;;5024608;28;20325;-53
2021/01/08 02:46:08;;;;;;;6.00;5.40;;;31.00;62.60;;;;;;5026305;28;20288;-51
2021/01/08 02:48:39;;;;;;;6.00;5.40;;;31.10;63.00;;;;;;5027699;28;20227;-54
2021/01/08 02:51:09;;;;;;;6.85;6.25;;;31.20;63.40;;;;;;5023863;28;20317;-51
2021/01/08 02:53:40;;;;;;;7.03;5.80;;;31.20;62.40;;;;;;5022261;28;20253;-52
2021/01/08 02:56:14;;;;;;;6.07;5.57;;;31.30;62.40;;;;;;5009772;28;20232;-51
2021/01/08 02:58:45;;;;;;;5.88;5.28;;;31.30;62.20;;;;;;4981683;28;21061;-52
2021/01/08 03:01:15;;;;;;;6.05;5.45;;;31.30;62.60;;;;;;4935415;28;20235;-54
2021/01/08 03:03:46;;;;;;;6.60;6.00;;;31.40;62.40;;;;;;4921619;28;20249;-52
2021/01/08 03:06:16;;;;;;;6.97;5.85;;;31.50;61.90;;;;;;4865281;28;20271;-54
2021/01/08 03:08:46;;;;;;;6.57;5.82;;;31.60;61.80;;;;;;4823976;29;20260;-53
2021/01/08 03:11:19;;;;;;;8.73;5.75;;;31.70;61.50;;;;;;4834989;29;20305;-55
2021/01/08 03:13:49;;;;;;;6.18;5.57;;;31.80;61.50;;;;;;4825901;29;20757;-55
2021/01/08 03:16:20;;;;;;;7.05;5.63;;;31.80;61.20;;;;;;4835366;29;20724;-51
2021/01/08 03:18:51;;;;;;;6.30;5.70;;;31.90;60.90;;;;;;4839632;29;20323;-50
2021/01/08 03:21:22;;;;;;;6.45;5.95;;;31.90;60.30;;;;;;4830594;29;20304;-51
2021/01/08 03:23:52;;;;;;;6.88;6.15;;;32.00;61.40;;;;;;4832081;29;20252;-55
2021/01/08 03:26:24;;;;;;;6.13;5.63;;;32.10;60.20;;;;;;4832854;29;20249;-52
2021/01/08 03:28:55;;;;;;;6.78;6.07;;;32.10;60.30;;;;;;4824298;29;20775;-55
2021/01/08 03:31:25;;;;;;;7.97;5.53;;;32.20;60.30;;;;;;4839665;28;20680;-54
2021/01/08 03:33:56;;;;;;;6.38;5.70;;;32.30;60.20;;;;;;4882779;28;20232;-52
2021/01/08 03:36:26;;;;;;;6.30;5.80;;;32.30;60.70;;;;;;4894411;28;21075;-53
2021/01/08 03:38:57;;;;;;;6.38;5.70;;;32.40;59.70;;;;;;4949577;28;20323;-50
2021/01/08 03:41:29;;;;;;;5.90;5.40;;;32.50;59.50;;;;;;4973466;28;20327;-52
2021/01/08 03:43:59;;;;;;;5.95;5.40;;;32.50;59.30;;;;;;4960028;28;20244;-52
2021/01/08 03:46:35;;;;;;;7.25;6.10;;;32.60;59.40;;;;;;4965700;28;20309;-52
2021/01/08 03:49:07;;;;;;;6.47;5.88;;;32.70;59.20;;;;;;4975547;28;20247;-53
2021/01/08 03:51:37;;;;;;;6.53;5.78;;;32.70;59.00;;;;;;4999972;28;20238;-52
2021/01/08 03:54:08;;;;;;;6.63;5.72;;;32.80;59.00;;;;;;4973125;28;20628;-51
2021/01/08 03:56:40;;;;;;;8.73;5.75;;;32.90;58.80;;;;;;4966723;28;20307;-53
2021/01/08 03:59:10;;;;;;;6.07;5.47;;;33.00;58.60;;;;;;4969460;28;20686;-50
2021/01/08 04:01:41;;;;;;;5.68;5.18;;;33.00;58.50;;;;;;4963270;28;20239;-50
2021/01/08 04:04:11;;;;;;;6.28;5.53;;;33.20;58.50;;;;;;4966736;28;20300;-55
2021/01/08 04:06:42;;;;;;;7.40;5.28;;;33.20;58.20;;;;;;4972897;28;20286;-53
2021/01/08 04:09:12;;;;;;;5.93;5.50;;;33.20;58.00;;;;;;4966628;28;20722;-50
2021/01/08 04:11:44;;;;;;;5.63;5.03;;;33.30;57.80;;;;;;4989908;28;20244;-50
2021/01/08 04:14:17;;;;;;;5.43;5.00;;;33.40;57.90;;;;;;4997250;28;20245;-50
2021/01/08 04:16:47;;;;;;;5.68;5.18;;;33.40;57.80;;;;;;4984026;28;20237;-53
2021/01/08 04:19:18;;;;;;;6.32;5.70;;;33.50;57.80;;;;;;4966031;28;20232;-53
2021/01/08 04:21:50;;;;;;;6.35;5.53;;;33.60;57.40;;;;;;4996530;28;20278;-52
2021/01/08 04:24:20;;;;;;;6.95;5.93;;;33.60;57.10;;;;;;4965205;28;20243;-52
2021/01/08 04:26:52;;;;;;;6.47;5.50;;;33.70;56.60;;;;;;5000879;28;20238;-53
2021/01/08 04:29:22;;;;;;;6.00;5.50;;;33.70;56.50;;;;;;4961603;28;20228;-52
2021/01/08 04:31:53;;;;;;;6.30;5.70;;;33.80;56.50;;;;;;4960405;28;20248;-50
2021/01/08 04:34:23;;;;;;;6.22;5.70;;;33.80;56.10;;;;;;4964585;28;20236;-50
2021/01/08 04:36:54;;;;;;;5.90;5.25;;;33.90;56.00;;;;;;4968768;28;20596;-51
2021/01/08 04:39:25;;;;;;;5.78;5.28;;;33.90;56.10;;;;;;4966999;28;20319;-50
2021/01/08 04:41:56;;;;;;;5.95;5.35;;;34.00;56.20;;;;;;5000599;28;20259;-52
2021/01/08 04:44:26;;;;;;;5.53;5.03;;;34.00;56.10;;;;;;4966150;28;21035;-52
2021/01/08 04:46:57;;;;;;;5.65;4.88;;;34.10;56.20;;;;;;4972601;28;20783;-51
2021/01/08 04:49:28;;;;;;;5.60;4.35;;;34.20;56.00;;;;;;4982271;28;20224;-51
2021/01/08 04:51:59;;;;;;;5.60;4.65;;;34.20;55.70;;;;;;4969156;28;20263;-51
2021/01/08 04:54:29;;;;;;;5.63;4.97;;;34.30;55.30;;;;;;4967914;28;20231;-51
2021/01/08 04:57:01;;;;;;;5.43;4.90;;;34.40;54.90;;;;;;4968224;28;20593;-51
2021/01/08 04:59:32;;;;;;;5.57;4.72;;;34.40;54.90;;;;;;4928533;28;21175;-49
2021/01/08 05:02:03;;;;;;;5.97;5.38;;;34.50;54.50;;;;;;4928982;29;20357;-52
2021/01/08 05:04:33;;;;;;;6.80;4.53;;;34.50;54.30;;;;;;4927937;28;20231;-49
2021/01/08 05:07:04;;;;;;;4.30;4.00;;;34.60;54.50;;;;;;4926547;28;24920;-49
2021/01/08 05:09:34;;;;;;;4.90;4.50;;;34.60;54.40;;;;;;4925867;28;20245;-52
2021/01/08 05:12:06;;;;;;;5.35;4.85;;;34.60;54.50;;;;;;4928725;28;20685;-53
2021/01/08 05:14:38;;;;;;;5.05;4.50;;;34.70;54.40;;;;;;4923743;28;20317;-51
2021/01/08 05:17:10;;;;;;;5.40;4.95;;;34.70;54.30;;;;;;4871006;28;20260;-49
2021/01/08 05:19:41;;;;;;;5.30;4.90;;;34.80;54.10;;;;;;4886003;28;20238;-50
2021/01/08 05:22:11;;;;;;;4.88;4.47;;;34.90;54.10;;;;;;4832621;29;20238;-55
2021/01/08 05:24:42;;;;;;;4.97;4.63;;;34.90;53.90;;;;;;4872292;28;20235;-53
2021/01/08 05:27:17;;;;;;;5.85;5.25;;;35.00;54.00;;;;;;4899629;28;20236;-54
2021/01/08 05:29:47;;;;;;;4.80;4.20;;;35.10;53.60;;;;;;4886072;29;20242;-54
2021/01/08 05:32:18;;;;;;;4.97;4.57;;;35.10;53.60;;;;;;4885718;29;20235;-49
2021/01/08 05:34:49;;;;;;;5.20;4.80;;;35.20;53.80;;;;;;4887261;29;20235;-52
2021/01/08 05:37:19;;;;;;;5.28;4.65;;;35.30;53.40;;;;;;4883760;29;20239;-52
2021/01/08 05:39:50;;;;;;;4.53;4.15;;;35.30;53.30;;;;;;4965629;28;20236;-51
2021/01/08 05:42:23;;;;;;;5.00;4.40;;;35.40;53.30;;;;;;4923344;29;20349;-49
2021/01/08 05:44:53;;;;;;;4.55;4.25;;;35.50;53.00;;;;;;4929535;29;20256;-50
2021/01/08 05:47:24;;;;;;;5.55;5.05;;;35.50;53.00;;;;;;4895547;29;20792;-51
2021/01/08 05:49:57;;;;;;;4.63;4.25;;;35.60;52.60;;;;;;4855219;29;20247;-51
2021/01/08 05:52:28;;;;;;;4.85;4.45;;;35.60;52.80;;;;;;4800183;29;20233;-50
2021/01/08 05:54:59;;;;;;;5.75;4.55;;;35.70;52.50;;;;;;4807580;29;20325;-50
2021/01/08 05:57:30;;;;;;;5.15;4.72;;;35.70;52.10;;;;;;4807597;29;20294;-50
2021/01/08 06:00:01;;;;;;;4.72;4.35;;;35.80;51.60;;;;;;4806025;29;20238;-52
2021/01/08 06:02:32;;;;;;;4.85;4.43;;;35.80;51.50;;;;;;4778137;29;20231;-49
2021/01/08 06:05:03;;;;;;;4.75;4.35;;;35.90;51.30;;;;;;4758038;30;20235;-49
2021/01/08 06:07:37;;;;;;;5.28;4.63;;;35.80;51.20;;;;;;4791905;29;20242;-54
2021/01/08 06:10:09;;;;;;;8.90;4.95;;;35.80;50.70;;;;;;4805307;29;20240;-55
2021/01/08 06:12:40;;;;;;;5.65;4.65;;;35.70;50.40;;;;;;4835363;29;20325;-54
2021/01/08 06:15:13;;;;;;;5.60;4.55;;;35.70;50.50;;;;;;4858672;29;20255;-51
2021/01/08 06:17:48;;;;;;;4.43;4.03;;;35.60;50.40;;;;;;4877098;29;20301;-51
2021/01/08 06:20:19;;;;;;;4.15;3.72;;;35.60;50.80;;;;;;4907209;29;20237;-51
2021/01/08 06:22:49;;;;;;;4.50;4.10;;;35.60;51.00;;;;;;4919612;28;20237;-50
2021/01/08 06:25:20;;;;;;;4.63;4.10;;;35.50;50.90;;;;;;4949731;28;20314;-54
2021/01/08 06:27:52;;;;;;;4.03;3.63;;;35.60;50.70;;;;;;4972115;28;20848;-50
2021/01/08 06:30:27;;;;;;;4.00;3.70;;;35.50;50.70;;;;;;4942999;28;20321;-53
2021/01/08 06:33:03;;;;;;;4.05;3.55;;;35.50;50.80;;;;;;4948531;28;20231;-49
2021/01/08 06:35:34;;;;;;;6.03;3.28;;;35.50;50.00;;;;;;4963388;28;20232;-48
2021/01/08 06:38:05;;;;;;;4.45;3.50;;;35.50;49.80;;;;;;4967262;28;20259;-49
2021/01/08 06:40:41;;;;;;;3.70;3.40;;;35.50;49.80;;;;;;4967098;28;20229;-48
2021/01/08 06:43:21;;;;;;;3.50;3.20;;;35.50;49.70;;;;;;4926718;28;20877;-48
2021/01/08 06:45:55;;;;;;;3.45;3.15;;;35.50;49.70;;;;;;4927264;28;20253;-48
2021/01/08 06:48:26;;;;;;;3.40;3.10;;;35.40;49.40;;;;;;4919572;28;20249;-49
2021/01/08 06:51:01;;;;;;;3.92;3.00;;;35.40;49.40;;;;;;4922918;29;20238;-51
2021/01/08 06:53:32;;;;;;;3.50;2.83;;;35.40;49.50;;;;;;4869697;28;20329;-54
2021/01/08 06:56:03;;;;;;;3.33;3.03;;;35.40;49.50;;;;;;4814102;29;20238;-54
2021/01/08 06:58:37;;;;;;;4.97;2.55;;;35.30;49.30;;;;;;4854983;29;20233;-54
2021/01/08 07:01:07;;;;;;;2.63;2.42;;;35.30;49.30;;;;;;4844158;29;20668;-55
2021/01/08 07:03:38;;;;;;;3.17;2.80;;;35.40;49.20;;;;;;4802121;29;20239;-54
2021/01/08 07:06:09;;;;;;;3.15;2.63;;;35.40;49.20;;;;;;4797497;29;20241;-53
2021/01/08 07:08:40;;;;;;;3.35;3.05;;;35.40;49.00;;;;;;4829177;29;20241;-51
2021/01/08 07:11:23;;;;;;;4.35;2.85;;;35.40;48.80;;;;;;4834768;29;20817;-53
2021/01/08 07:14:05;;;;;;;3.65;2.85;;;35.30;48.90;;;;;;4800626;29;20656;-52
2021/01/08 07:16:37;;;;;;;4.88;3.00;;;35.40;49.40;;;;;;4801073;29;20582;-53
2021/01/08 07:19:11;;;;;;;3.38;2.63;;;35.40;49.40;;;;;;4816974;29;21317;-55
2021/01/08 07:21:48;;;;;;;4.45;2.90;;;35.40;49.40;;;;;;4834514;29;20277;-54
2021/01/08 07:24:20;;;;;;;4.75;3.10;;;35.40;49.00;;;;;;4872752;29;20910;-54
2021/01/08 07:26:50;;;;;;;3.75;2.80;;;35.40;49.30;;;;;;4885517;29;20245;-55
2021/01/08 07:29:29;;;;;;;4.15;2.60;;;35.50;49.40;;;;;;4877738;29;20787;-56
2021/01/08 07:31:59;;;;;;;3.05;2.75;;;35.60;49.00;;;;;;4850318;29;20261;-54
2021/01/08 07:34:36;;;;;;;5.45;2.60;;;35.60;48.70;;;;;;4897961;28;20236;-54
2021/01/08 07:37:07;;;;;;;3.03;2.30;;;35.70;48.90;;;;;;4930337;28;20320;-51
2021/01/08 07:39:39;;;;;;;4.05;2.40;;;35.70;49.00;;;;;;4931943;28;20234;-53
2021/01/08 07:42:37;;;;;;;3.00;2.65;;;35.90;48.60;;;;;;4963231;28;20242;-52
2021/01/08 07:45:10;;;;;;;2.78;2.58;;;36.00;47.90;;;;;;4918779;28;20221;-53
2021/01/08 07:47:41;;;;;;;4.07;3.05;;;36.00;48.90;;;;;;5018949;28;20229;-50
2021/01/08 07:50:13;;;;;;;3.25;2.80;;;36.10;48.00;;;;;;4966640;28;20237;-50
2021/01/08 07:52:44;;;;;;;6.72;2.92;;;36.10;48.20;;;;;;4964795;28;20319;-56
2021/01/08 07:55:15;;;;;;;3.13;2.80;;;36.10;48.20;;;;;;4991739;28;20236;-53
2021/01/08 07:58:07;;;;;;;3.13;2.83;;;36.10;48.00;;;;;;4978556;28;20231;-51
2021/01/08 08:00:39;;;;;;;3.70;2.75;;;36.20;47.80;;;;;;4945034;28;20233;-49
2021/01/08 08:03:13;;;;;;;3.42;3.10;;;36.20;47.50;;;;;;4890185;28;20311;-50
2021/01/08 08:05:46;;;;;;;3.88;2.83;;;36.30;47.30;;;;;;4891438;28;20322;-48
2021/01/08 08:08:17;;;;;;;3.28;2.97;;;36.20;47.40;;;;;;4890945;28;20258;-52
2021/01/08 08:10:48;;;;;;;3.30;3.00;;;36.20;47.50;;;;;;4887950;28;20331;-49
2021/01/08 08:13:19;;;;;;;3.97;2.85;;;36.20;47.70;;;;;;4885436;28;20307;-51
2021/01/08 08:15:51;;;;;;;3.28;2.97;;;36.20;47.30;;;;;;4834072;29;20241;-54
2021/01/08 08:18:21;;;;;;;3.78;2.95;;;36.10;47.30;;;;;;4834211;29;20244;-49
2021/01/08 08:21:03;;;;;;;2.80;2.60;;;36.10;47.10;;;;;;4851444;29;20287;-54
2021/01/08 08:23:34;;;;;;;3.10;2.65;;;36.10;47.30;;;;;;4797496;29;20658;-51
2021/01/08 08:26:04;;;;;;;2.60;2.40;;;36.00;47.50;;;;;;4797451;29;20334;-50
2021/01/08 08:28:36;;;;;;;4.65;2.40;;;35.90;47.60;;;;;;4800973;29;20248;-50
2021/01/08 08:31:08;;;;;;;2.90;2.70;;;35.90;47.40;;;;;;4799133;29;20251;-52
2021/01/08 08:33:45;;;;;;;3.25;2.58;;;35.90;47.40;;;;;;4812003;29;20781;-54
2021/01/08 08:36:17;;;;;;;2.50;2.30;;;35.90;47.60;;;;;;4844978;29;20264;-52
2021/01/08 08:39:00;;;;;;;2.35;2.10;;;35.90;47.90;;;;;;4814422;29;20244;-49
2021/01/08 08:41:31;;;;;;;2.67;2.47;;;35.90;47.90;;;;;;4799244;29;20242;-52
2021/01/08 08:44:06;;;;;;;2.45;2.25;;;36.00;47.80;;;;;;4812876;29;20242;-55
2021/01/08 08:46:53;;;;;;;3.28;2.45;;;36.00;47.70;;;;;;4822438;29;20284;-51
2021/01/08 08:49:28;;;;;;;3.25;2.35;;;36.00;47.50;;;;;;4834872;29;20251;-50
2021/01/08 08:51:59;;;;;;;2.60;2.40;;;36.00;47.50;;;;;;4834829;29;20241;-53
2021/01/08 08:54:29;;;;;;;2.55;2.35;;;36.00;47.60;;;;;;4870099;28;20243;-54
2021/01/08 08:57:02;;;;;;;3.17;2.38;;;36.00;47.60;;;;;;4915839;28;20262;-50
2021/01/08 08:59:39;;;;;;;3.17;2.28;;;35.90;47.60;;;;;;4926537;28;20234;-52
2021/01/08 09:02:11;;;;;;;3.67;2.30;;;35.90;47.70;;;;;;4928021;28;20319;-53
2021/01/08 09:04:52;;;;;;;3.92;2.28;;;35.80;47.70;;;;;;4922616;28;20376;-50
2021/01/08 09:07:26;;;;;;;2.38;2.17;;;35.80;47.90;;;;;;4927046;28;20268;-52
2021/01/08 09:10:02;;;;;;;4.10;2.65;;;35.80;47.90;;;;;;4950762;28;20223;-55
2021/01/08 09:12:38;;;;;;;7.07;5.57;;;35.80;48.30;;;;;;4969020;28;20314;-53
2021/01/08 09:15:14;;;;;;;9.95;8.95;;;35.80;50.70;;;;;;4968358;28;20754;-53
2021/01/08 09:17:45;;;;;;;8.05;7.25;;;35.70;53.00;;;;;;4966281;28;20232;-52
2021/01/08 09:20:18;;;;;;;9.93;8.32;;;35.70;52.80;;;;;;4965396;28;20233;-52
2021/01/08 09:22:49;;;;;;;12.32;9.48;;;35.60;53.30;;;;;;5041593;28;20257;-55
2021/01/08 09:25:19;;;;;;;10.88;8.70;;;35.50;54.20;;;;;;5044154;28;20246;-53
2021/01/08 09:27:53;;;;;;;10.05;8.77;;;35.40;54.40;;;;;;5042072;28;20233;-51
2021/01/08 09:30:24;;;;;;;8.95;8.02;;;35.30;54.80;;;;;;5043594;28;20305;-52
2021/01/08 09:32:56;;;;;;;9.35;7.47;;;35.20;54.90;;;;;;5036748;28;20249;-53
2021/01/08 09:35:27;;;;;;;9.35;7.28;;;35.20;55.00;;;;;;5044736;28;20635;-54
2021/01/08 09:37:57;;;;;;;7.32;6.63;;;35.20;55.10;;;;;;5044382;28;20226;-51
2021/01/08 09:40:28;;;;;;;7.10;6.50;;;35.20;55.20;;;;;;4987551;28;20279;-53
2021/01/08 09:42:58;;;;;;;8.07;7.03;;;35.30;55.40;;;;;;4985322;28;20232;-53
2021/01/08 09:45:29;;;;;;;8.85;7.68;;;35.30;55.40;;;;;;4987502;28;20228;-55
2021/01/08 09:48:01;;;;;;;22.63;20.35;;;35.40;55.20;;;;;;4981706;28;20235;-54
2021/01/08 09:50:32;;;;;;;13.85;11.35;;;35.50;55.10;;;;;;4984794;28;20228;-55
2021/01/08 09:53:10;;;;;;;9.50;8.07;;;35.50;54.80;;;;;;4968718;28;20367;-53
2021/01/08 09:55:41;;;;;;;8.60;7.63;;;35.40;54.30;;;;;;4925015;28;20317;-56
2021/01/08 09:58:11;;;;;;;9.32;8.07;;;35.30;54.80;;;;;;4921410;28;20234;-50
2021/01/08 10:00:42;;;;;;;7.88;7.15;;;35.30;55.80;;;;;;4897108;28;20707;-53
2021/01/08 10:03:21;;;;;;;7.22;6.53;;;35.20;55.80;;;;;;4890571;28;20230;-51
2021/01/08 10:05:51;;;;;;;8.90;8.00;;;35.20;56.00;;;;;;4887149;28;20326;-51
2021/01/08 10:08:22;;;;;;;8.80;7.95;;;35.20;56.00;;;;;;4873048;28;20236;-54
2021/01/08 10:10:52;;;;;;;9.00;8.20;;;35.10;55.90;;;;;;4877225;28;20912;-51
2021/01/08 10:13:23;;;;;;;10.35;9.20;;;35.00;56.70;;;;;;4925978;28;20725;-53
2021/01/08 10:15:56;;;;;;;9.43;8.63;;;34.90;56.20;;;;;;4924038;28;20316;-53
2021/01/08 10:18:32;;;;;;;8.07;7.32;;;34.80;56.20;;;;;;4929377;29;20240;-51
2021/01/08 10:21:05;;;;;;;8.63;7.68;;;34.70;56.40;;;;;;4901670;28;20660;-53
2021/01/08 10:23:46;;;;;;;8.63;7.43;;;34.70;56.80;;;;;;4924926;28;20234;-54
2021/01/08 10:26:17;;;;;;;8.15;7.45;;;34.80;57.20;;;;;;4926072;28;20709;-54
2021/01/08 10:28:49;;;;;;;10.38;9.27;;;34.90;57.20;;;;;;4923539;28;20234;-53
2021/01/08 10:31:20;;;;;;;11.05;9.95;;;35.10;57.00;;;;;;4936707;28;20677;-54
2021/01/08 10:33:52;;;;;;;13.02;10.23;;;35.20;56.80;;;;;;4964210;28;20228;-55
2021/01/08 10:36:22;;;;;;;9.68;8.77;;;35.50;56.60;;;;;;4968606;28;20756;-51
2021/01/08 10:38:53;;;;;;;11.73;8.52;;;35.60;56.20;;;;;;4998413;28;20436;-55
2021/01/08 10:41:23;;;;;;;12.07;10.90;;;35.80;55.80;;;;;;4965933;28;20335;-54
2021/01/08 10:43:54;;;;;;;10.32;9.25;;;35.90;55.40;;;;;;4964592;28;20348;-55
2021/01/08 10:46:25;;;;;;;12.65;9.40;;;36.00;55.00;;;;;;4964738;28;20292;-53
2021/01/08 10:48:57;;;;;;;10.43;9.38;;;36.00;54.70;;;;;;5003990;28;20254;-53
2021/01/08 10:51:29;;;;;;;10.75;9.68;;;36.00;54.20;;;;;;4961038;28;20595;-51
2021/01/08 10:54:00;;;;;;;11.93;9.80;;;35.90;54.10;;;;;;4998340;28;20588;-53
2021/01/08 10:56:31;;;;;;;11.02;9.95;;;35.80;54.90;;;;;;4954003;28;20228;-51
2021/01/08 10:59:01;;;;;;;13.68;11.02;;;35.60;55.40;;;;;;4998294;28;20230;-53
2021/01/08 11:01:40;;;;;;;11.43;10.23;;;35.40;55.80;;;;;;5002970;28;20243;-51
2021/01/08 11:04:12;;;;;;;11.93;10.73;;;35.20;55.60;;;;;;4948783;28;20244;-55
2021/01/08 11:06:42;;;;;;;13.20;10.55;;;35.00;56.10;;;;;;4928650;28;20234;-54
2021/01/08 11:09:13;;;;;;;13.13;9.57;;;34.80;56.50;;;;;;4936010;28;20624;-53
2021/01/08 11:11:43;;;;;;;11.90;10.70;;;34.50;56.70;;;;;;4920889;28;20329;-51
2021/01/08 11:14:14;;;;;;;10.55;8.35;;;34.30;57.30;;;;;;4941229;28;20230;-49
2021/01/08 11:16:44;;;;;;;10.13;8.82;;;34.10;57.40;;;;;;4919857;28;20268;-51
2021/01/08 11:19:16;;;;;;;13.02;11.15;;;34.00;57.60;;;;;;4928141;28;20820;-51
2021/01/08 11:21:46;;;;;;;12.02;10.77;;;33.80;58.30;;;;;;4926527;28;20253;-49
2021/01/08 11:24:17;;;;;;;14.23;12.73;;;33.70;58.30;;;;;;4925720;28;20241;-54
2021/01/08 11:26:49;;;;;;;12.63;11.32;;;33.60;58.80;;;;;;4931079;28;20246;-52
2021/01/08 11:29:20;;;;;;;13.88;10.13;;;33.50;59.00;;;;;;4956715;28;20305;-51
2021/01/08 11:31:50;;;;;;;12.32;11.00;;;33.30;59.20;;;;;;4922065;28;20243;-52
2021/01/08 11:34:23;;;;;;;10.32;9.32;;;33.30;59.40;;;;;;4935051;28;20240;-52
2021/01/08 11:36:56;;;;;;;12.45;11.18;;;33.20;59.60;;;;;;4963924;28;20267;-53
2021/01/08 11:39:44;;;;;;;11.80;10.63;;;33.10;59.70;;;;;;4970416;28;20646;-51
2021/01/08 11:42:16;;;;;;;12.63;11.32;;;33.10;59.80;;;;;;4974258;28;20370;-52
2021/01/08 11:44:46;;;;;;;15.77;14.10;;;33.00;60.10;;;;;;4983966;28;20237;-58
2021/01/08 11:47:17;;;;;;;17.30;15.50;;;32.90;60.40;;;;;;4968821;28;20241;-54
2021/01/08 11:49:49;;;;;;;19.10;15.05;;;32.90;60.70;;;;;;4971175;28;20684;-57
2021/01/08 11:52:19;;;;;;;19.08;16.00;;;32.80;60.70;;;;;;4968159;28;20233;-55
2021/01/08 11:54:50;;;;;;;16.58;14.88;;;32.80;60.80;;;;;;4984090;28;20237;-52
2021/01/08 11:57:21;;;;;;;15.23;13.70;;;32.70;61.00;;;;;;4969936;28;20264;-51
2021/01/08 11:59:52;;;;;;;15.70;14.05;;;32.70;61.20;;;;;;4961728;28;20231;-52
2021/01/08 12:02:23;;;;;;;16.60;14.30;;;32.60;61.40;;;;;;4962071;28;20755;-54
2021/01/08 12:04:55;;;;;;;15.13;13.63;;;32.60;61.40;;;;;;4969710;28;20274;-52
2021/01/08 12:07:26;;;;;;;14.63;13.13;;;32.50;61.70;;;;;;4975008;28;20253;-54
2021/01/08 12:09:57;;;;;;;15.73;13.00;;;32.50;61.60;;;;;;4966411;28;20239;-54
2021/01/08 12:12:28;;;;;;;11.95;10.73;;;32.50;61.40;;;;;;4969075;28;20233;-54
2021/01/08 12:14:58;;;;;;;13.40;12.02;;;32.40;60.70;;;;;;4965029;28;20252;-53
2021/01/08 12:17:29;;;;;;;13.98;11.73;;;32.40;61.10;;;;;;4968759;28;20270;-53
2021/01/08 12:20:01;;;;;;;11.60;10.43;;;32.40;61.10;;;;;;4967021;28;20286;-53
2021/01/08 12:22:33;;;;;;;12.40;10.30;;;32.40;61.00;;;;;;4966299;28;20275;-54
2021/01/08 12:25:05;;;;;;;11.48;9.73;;;32.30;61.00;;;;;;4961665;28;20657;-56
2021/01/08 12:27:37;;;;;;;11.18;8.73;;;32.30;61.00;;;;;;4980687;28;20286;-55
2021/01/08 12:30:09;;;;;;;10.35;9.25;;;32.30;60.80;;;;;;4961168;28;20237;-50
2021/01/08 12:32:39;;;;;;;10.40;8.57;;;32.30;61.30;;;;;;4967461;28;20232;-53
2021/01/08 12:35:12;;;;;;;8.98;8.23;;;32.20;61.40;;;;;;4963187;28;20228;-51
2021/01/08 12:37:45;;;;;;;9.65;8.35;;;32.20;61.90;;;;;;4968142;28;20807;-52
2021/01/08 12:40:18;;;;;;;10.25;8.85;;;32.20;62.00;;;;;;4956700;28;20251;-54
2021/01/08 12:42:49;;;;;;;9.88;8.98;;;32.20;61.90;;;;;;4970302;28;20244;-53
2021/01/08 12:45:19;;;;;;;10.38;8.73;;;32.20;62.00;;;;;;4962073;28;20303;-53
2021/01/08 12:47:49;;;;;;;10.73;9.18;;;32.10;62.10;;;;;;4957270;28;20228;-51
2021/01/08 12:50:22;;;;;;;8.95;8.07;;;32.10;62.20;;;;;;4969821;28;20228;-51
2021/01/08 12:52:52;;;;;;;9.27;8.38;;;32.10;62.40;;;;;;4970098;28;20237;-51
2021/01/08 12:55:22;;;;;;;8.85;7.95;;;32.00;62.10;;;;;;4970741;28;20255;-53
2021/01/08 12:57:55;;;;;;;8.63;7.43;;;32.00;62.10;;;;;;4969578;28;20238;-51
2021/01/08 13:00:25;;;;;;;8.13;7.40;;;32.00;62.30;;;;;;4964281;28;20281;-55
2021/01/08 13:02:56;;;;;;;9.40;8.43;;;32.00;62.20;;;;;;4967987;28;20311;-55
2021/01/08 13:05:30;;;;;;;8.77;7.88;;;31.90;62.20;;;;;;4968887;28;20263;-55
2021/01/08 13:08:01;;;;;;;12.52;7.78;;;31.90;62.30;;;;;;4968811;28;20313;-53